Aérodrome :
LOGIN :

S'inscrire | Disclaimer

   EN    FR    IT 

 










Légende :    VFR   VFR Marginal   IFR   IFR Intensif   IFR Très Intensif
Visi : 
Plafond : 
>= 8 km
>= 3000ft
5 à 8 km
1000 à 3000 ft
1500m à 5 km
500 à 1000 ft
800 à 1500m
200 à 500 ft
< 800m
< 200 ft
Symboles :   Orages  Brouillard  Fortes neiges  Fortes précipitations  Vent > 20 kt
SIGMETs :   Divers  Orages  Givrage  Turbulence  Onde Orograph.  Cendres Volcan.






- Altitude de l'aérodrome : 65 ft
- Code IATA : PIK


EGPK - Glasgow Prestwick

DERNIER METAR :
  • 150950Z 35004KT 320V030 7000 -RA FEW020 SCT046 17/16 Q1003

METARs EXPIRÉS :
  • 150920Z 01003KT 330V050 7000 -RA FEW021 SCT046 17/15 Q1003
  • 150850Z 35004KT 310V030 7000 -RA FEW021 SCT046 17/16 Q1003
  • 150820Z 03006KT 8000 -RA FEW021 SCT046 16/15 Q1002
  • 150750Z 02004KT 340V060 8000 -RA FEW021 SCT046 16/15 Q1002
  • 150720Z 02005KT 350V050 7000 -RA FEW021 SCT046 16/15 Q1002
  • 150650Z 06004KT 8000 -RA FEW024 SCT046 16/15 Q1003

TAF TAF EGPK
Valide du 15 à 06h jusqu'au 16 à 06h UTC


150456Z 1506/1606 04005KT 9999 FEW025 SCT045
PROB30
TEMPO 1506/1509 6000 SHRA
TEMPO 1509/1606 5000 RA SHRA BKN010
PROB30
TEMPO 1512/1524 3000 +TSRA BKN009 BKN040CB
PROB40
TEMPO 1600/1606 BKN007



MET'MAP, la Météo Aéronautique d'un coup d'oeil ! - Copyright ORBIFLY Décembre 2007 - Disclaimer

ORBIFLY MET'MAP TEAM :

Programmation & Développement : Alexandra Zaïnal
Sur une idée originale de : Baudouin d'Aumeries
Soutien technique & logistique : Manuel Goepfert
Assistance : Marc-Olivier Méhu




SOURCES & CREDITS :

   NOAA